sensor_id;sensor_type;location;lat;lon;timestamp;P1;P2;P0
12542;PMS3003;6337;49.556;25.594;2024-02-26T00:00:34;53.97;18.83;
12542;PMS3003;6337;49.556;25.594;2024-02-26T00:03:01;43.43;19.60;
12542;PMS3003;6337;49.556;25.594;2024-02-26T00:05:29;39.13;20.40;
12542;PMS3003;6337;49.556;25.594;2024-02-26T00:07:57;46.23;18.67;
12542;PMS3003;6337;49.556;25.594;2024-02-26T00:10:27;55.80;18.50;
12542;PMS3003;6337;49.556;25.594;2024-02-26T00:12:55;37.37;17.90;
12542;PMS3003;6337;49.556;25.594;2024-02-26T00:15:23;35.13;16.97;
12542;PMS3003;6337;49.556;25.594;2024-02-26T00:17:50;53.50;19.40;
12542;PMS3003;6337;49.556;25.594;2024-02-26T00:20:18;34.20;18.77;
12542;PMS3003;6337;49.556;25.594;2024-02-26T00:22:45;50.90;18.33;
12542;PMS3003;6337;49.556;25.594;2024-02-26T00:25:13;45.87;20.10;
12542;PMS3003;6337;49.556;25.594;2024-02-26T00:27:43;54.03;23.57;
12542;PMS3003;6337;49.556;25.594;2024-02-26T00:30:12;45.10;21.80;
12542;PMS3003;6337;49.556;25.594;2024-02-26T00:32:40;49.13;19.83;
12542;PMS3003;6337;49.556;25.594;2024-02-26T00:35:08;40.57;18.47;
12542;PMS3003;6337;49.556;25.594;2024-02-26T00:37:36;43.10;19.07;
12542;PMS3003;6337;49.556;25.594;2024-02-26T00:40:05;48.03;21.30;
12542;PMS3003;6337;49.556;25.594;2024-02-26T00:42:34;53.30;18.60;
12542;PMS3003;6337;49.556;25.594;2024-02-26T00:45:04;40.60;21.03;
12542;PMS3003;6337;49.556;25.594;2024-02-26T00:47:32;44.80;22.10;
12542;PMS3003;6337;49.556;25.594;2024-02-26T00:49:59;38.10;20.10;
12542;PMS3003;6337;49.556;25.594;2024-02-26T00:52:28;57.33;20.80;
12542;PMS3003;6337;49.556;25.594;2024-02-26T00:54:55;42.33;21.63;
12542;PMS3003;6337;49.556;25.594;2024-02-26T00:57:22;57.83;20.37;
12542;PMS3003;6337;49.556;25.594;2024-02-26T00:59:51;42.30;19.20;
12542;PMS3003;6337;49.556;25.594;2024-02-26T01:02:26;45.00;23.00;
12542;PMS3003;6337;49.556;25.594;2024-02-26T01:04:53;44.03;22.50;
12542;PMS3003;6337;49.556;25.594;2024-02-26T01:07:22;51.90;22.03;
12542;PMS3003;6337;49.556;25.594;2024-02-26T01:09:49;41.63;20.80;
12542;PMS3003;6337;49.556;25.594;2024-02-26T01:12:17;55.00;21.93;
12542;PMS3003;6337;49.556;25.594;2024-02-26T01:14:45;48.87;21.00;
12542;PMS3003;6337;49.556;25.594;2024-02-26T01:17:12;44.70;22.10;
12542;PMS3003;6337;49.556;25.594;2024-02-26T01:19:41;43.07;19.43;
12542;PMS3003;6337;49.556;25.594;2024-02-26T01:22:08;48.13;20.57;
12542;PMS3003;6337;49.556;25.594;2024-02-26T01:24:37;49.87;21.53;
12542;PMS3003;6337;49.556;25.594;2024-02-26T01:27:04;50.17;21.40;
12542;PMS3003;6337;49.556;25.594;2024-02-26T01:29:33;43.57;20.37;
12542;PMS3003;6337;49.556;25.594;2024-02-26T01:32:00;46.47;21.23;
12542;PMS3003;6337;49.556;25.594;2024-02-26T01:34:29;59.10;22.10;
12542;PMS3003;6337;49.556;25.594;2024-02-26T01:36:59;36.80;20.47;
12542;PMS3003;6337;49.556;25.594;2024-02-26T01:39:27;40.70;22.00;
12542;PMS3003;6337;49.556;25.594;2024-02-26T01:41:56;55.27;21.73;
12542;PMS3003;6337;49.556;25.594;2024-02-26T01:44:25;47.77;19.93;
12542;PMS3003;6337;49.556;25.594;2024-02-26T01:46:57;66.20;23.50;
12542;PMS3003;6337;49.556;25.594;2024-02-26T01:49:26;45.73;19.57;
12542;PMS3003;6337;49.556;25.594;2024-02-26T01:51:55;42.63;19.97;
12542;PMS3003;6337;49.556;25.594;2024-02-26T01:54:26;53.60;22.20;
12542;PMS3003;6337;49.556;25.594;2024-02-26T01:56:53;44.63;21.13;
12542;PMS3003;6337;49.556;25.594;2024-02-26T01:59:25;46.67;22.30;
12542;PMS3003;6337;49.556;25.594;2024-02-26T02:01:54;66.80;23.10;
12542;PMS3003;6337;49.556;25.594;2024-02-26T02:04:25;43.97;21.93;
12542;PMS3003;6337;49.556;25.594;2024-02-26T02:06:52;42.20;21.47;
12542;PMS3003;6337;49.556;25.594;2024-02-26T02:09:21;49.33;20.93;
12542;PMS3003;6337;49.556;25.594;2024-02-26T02:11:49;59.57;24.30;
12542;PMS3003;6337;49.556;25.594;2024-02-26T02:14:18;63.97;22.33;
12542;PMS3003;6337;49.556;25.594;2024-02-26T02:16:45;47.43;22.37;
12542;PMS3003;6337;49.556;25.594;2024-02-26T02:19:13;40.13;20.40;
12542;PMS3003;6337;49.556;25.594;2024-02-26T02:21:44;54.07;24.50;
12542;PMS3003;6337;49.556;25.594;2024-02-26T02:24:11;42.27;21.60;
12542;PMS3003;6337;49.556;25.594;2024-02-26T02:26:38;66.23;24.00;
12542;PMS3003;6337;49.556;25.594;2024-02-26T02:29:07;49.90;22.07;
12542;PMS3003;6337;49.556;25.594;2024-02-26T02:31:36;53.33;22.47;
12542;PMS3003;6337;49.556;25.594;2024-02-26T02:34:03;65.30;20.93;
12542;PMS3003;6337;49.556;25.594;2024-02-26T02:36:30;48.30;22.50;
12542;PMS3003;6337;49.556;25.594;2024-02-26T02:38:59;57.07;24.20;
12542;PMS3003;6337;49.556;25.594;2024-02-26T02:41:27;54.13;20.27;
12542;PMS3003;6337;49.556;25.594;2024-02-26T02:43:55;36.47;19.40;
12542;PMS3003;6337;49.556;25.594;2024-02-26T02:46:23;54.93;21.40;
12542;PMS3003;6337;49.556;25.594;2024-02-26T02:48:50;42.53;22.90;
12542;PMS3003;6337;49.556;25.594;2024-02-26T02:51:17;43.80;20.83;
12542;PMS3003;6337;49.556;25.594;2024-02-26T02:53:45;50.27;21.40;
12542;PMS3003;6337;49.556;25.594;2024-02-26T02:56:14;50.33;19.90;
12542;PMS3003;6337;49.556;25.594;2024-02-26T02:58:41;35.70;20.47;
12542;PMS3003;6337;49.556;25.594;2024-02-26T03:01:09;40.00;21.90;
12542;PMS3003;6337;49.556;25.594;2024-02-26T03:03:36;47.00;22.23;
12542;PMS3003;6337;49.556;25.594;2024-02-26T03:06:04;47.90;20.83;
12542;PMS3003;6337;49.556;25.594;2024-02-26T03:08:31;36.50;19.33;
12542;PMS3003;6337;49.556;25.594;2024-02-26T03:11:02;49.07;22.77;
12542;PMS3003;6337;49.556;25.594;2024-02-26T03:13:31;45.00;19.83;
12542;PMS3003;6337;49.556;25.594;2024-02-26T03:16:04;44.27;22.83;
12542;PMS3003;6337;49.556;25.594;2024-02-26T03:18:32;37.93;20.90;
12542;PMS3003;6337;49.556;25.594;2024-02-26T03:20:59;52.77;23.80;
12542;PMS3003;6337;49.556;25.594;2024-02-26T03:23:27;46.60;20.30;
12542;PMS3003;6337;49.556;25.594;2024-02-26T03:25:57;44.83;21.50;
12542;PMS3003;6337;49.556;25.594;2024-02-26T03:28:24;47.20;21.17;
12542;PMS3003;6337;49.556;25.594;2024-02-26T03:30:53;45.23;22.57;
12542;PMS3003;6337;49.556;25.594;2024-02-26T03:33:22;36.50;20.03;
12542;PMS3003;6337;49.556;25.594;2024-02-26T03:35:50;43.43;20.87;
12542;PMS3003;6337;49.556;25.594;2024-02-26T03:38:18;56.00;22.17;
12542;PMS3003;6337;49.556;25.594;2024-02-26T03:40:45;59.43;22.90;
12542;PMS3003;6337;49.556;25.594;2024-02-26T03:43:13;43.60;22.20;
12542;PMS3003;6337;49.556;25.594;2024-02-26T03:45:41;39.30;21.70;
12542;PMS3003;6337;49.556;25.594;2024-02-26T03:48:11;48.50;22.50;
12542;PMS3003;6337;49.556;25.594;2024-02-26T03:50:39;50.27;23.17;
12542;PMS3003;6337;49.556;25.594;2024-02-26T03:53:06;49.37;22.60;
12542;PMS3003;6337;49.556;25.594;2024-02-26T03:55:39;46.30;21.20;
12542;PMS3003;6337;49.556;25.594;2024-02-26T03:58:07;46.40;22.07;
12542;PMS3003;6337;49.556;25.594;2024-02-26T04:00:34;51.03;22.07;
12542;PMS3003;6337;49.556;25.594;2024-02-26T04:03:03;48.63;23.27;
12542;PMS3003;6337;49.556;25.594;2024-02-26T04:05:32;42.30;22.10;
12542;PMS3003;6337;49.556;25.594;2024-02-26T04:08:01;36.97;19.70;
12542;PMS3003;6337;49.556;25.594;2024-02-26T04:10:29;55.43;22.90;
12542;PMS3003;6337;49.556;25.594;2024-02-26T04:13:03;42.30;21.90;
12542;PMS3003;6337;49.556;25.594;2024-02-26T04:15:31;50.73;20.90;
12542;PMS3003;6337;49.556;25.594;2024-02-26T04:18:00;43.47;21.47;
12542;PMS3003;6337;49.556;25.594;2024-02-26T04:20:28;42.07;23.23;
12542;PMS3003;6337;49.556;25.594;2024-02-26T04:22:59;45.30;21.03;
12542;PMS3003;6337;49.556;25.594;2024-02-26T04:25:27;47.00;21.13;
12542;PMS3003;6337;49.556;25.594;2024-02-26T04:27:55;42.63;23.13;
12542;PMS3003;6337;49.556;25.594;2024-02-26T04:30:22;48.93;20.97;
12542;PMS3003;6337;49.556;25.594;2024-02-26T04:32:53;38.33;21.67;
12542;PMS3003;6337;49.556;25.594;2024-02-26T04:35:20;38.67;20.33;
12542;PMS3003;6337;49.556;25.594;2024-02-26T04:37:51;42.07;19.60;
12542;PMS3003;6337;49.556;25.594;2024-02-26T04:40:18;40.80;20.07;
12542;PMS3003;6337;49.556;25.594;2024-02-26T04:42:46;46.80;21.70;
12542;PMS3003;6337;49.556;25.594;2024-02-26T04:45:24;40.10;20.80;
12542;PMS3003;6337;49.556;25.594;2024-02-26T04:47:52;38.70;21.37;
12542;PMS3003;6337;49.556;25.594;2024-02-26T04:50:21;50.60;22.60;
12542;PMS3003;6337;49.556;25.594;2024-02-26T04:53:00;46.73;21.67;
12542;PMS3003;6337;49.556;25.594;2024-02-26T04:55:27;48.60;23.37;
12542;PMS3003;6337;49.556;25.594;2024-02-26T04:57:55;50.63;21.27;
12542;PMS3003;6337;49.556;25.594;2024-02-26T05:00:24;42.30;20.73;
12542;PMS3003;6337;49.556;25.594;2024-02-26T05:02:52;42.73;22.70;
12542;PMS3003;6337;49.556;25.594;2024-02-26T05:05:20;44.27;21.00;
12542;PMS3003;6337;49.556;25.594;2024-02-26T05:07:47;36.03;19.17;
12542;PMS3003;6337;49.556;25.594;2024-02-26T05:10:16;46.57;22.33;
12542;PMS3003;6337;49.556;25.594;2024-02-26T05:12:44;42.30;20.37;
12542;PMS3003;6337;49.556;25.594;2024-02-26T05:15:11;43.93;22.10;
12542;PMS3003;6337;49.556;25.594;2024-02-26T05:17:43;48.13;19.90;
12542;PMS3003;6337;49.556;25.594;2024-02-26T05:20:12;50.33;21.97;
12542;PMS3003;6337;49.556;25.594;2024-02-26T05:22:40;42.47;21.13;
12542;PMS3003;6337;49.556;25.594;2024-02-26T05:25:08;55.50;22.20;
12542;PMS3003;6337;49.556;25.594;2024-02-26T05:27:36;47.73;22.70;
12542;PMS3003;6337;49.556;25.594;2024-02-26T05:30:04;44.60;20.97;
12542;PMS3003;6337;49.556;25.594;2024-02-26T05:32:34;51.43;20.13;
12542;PMS3003;6337;49.556;25.594;2024-02-26T05:35:02;57.03;22.90;
12542;PMS3003;6337;49.556;25.594;2024-02-26T05:37:30;38.53;22.00;
12542;PMS3003;6337;49.556;25.594;2024-02-26T05:39:59;47.63;20.87;
12542;PMS3003;6337;49.556;25.594;2024-02-26T05:42:29;31.03;17.73;
12542;PMS3003;6337;49.556;25.594;2024-02-26T05:44:58;47.40;20.50;
12542;PMS3003;6337;49.556;25.594;2024-02-26T05:47:31;41.57;21.43;
12542;PMS3003;6337;49.556;25.594;2024-02-26T05:49:59;43.87;19.83;
12542;PMS3003;6337;49.556;25.594;2024-02-26T05:52:26;46.40;20.83;
12542;PMS3003;6337;49.556;25.594;2024-02-26T05:54:54;42.57;22.57;
12542;PMS3003;6337;49.556;25.594;2024-02-26T05:57:24;48.20;22.80;
12542;PMS3003;6337;49.556;25.594;2024-02-26T05:59:53;47.90;23.33;
12542;PMS3003;6337;49.556;25.594;2024-02-26T06:02:22;56.70;24.00;
12542;PMS3003;6337;49.556;25.594;2024-02-26T06:04:53;39.83;20.37;
12542;PMS3003;6337;49.556;25.594;2024-02-26T06:07:21;49.40;21.53;
12542;PMS3003;6337;49.556;25.594;2024-02-26T06:09:49;41.97;21.03;
12542;PMS3003;6337;49.556;25.594;2024-02-26T06:12:17;44.87;20.70;
12542;PMS3003;6337;49.556;25.594;2024-02-26T06:14:44;38.77;19.60;
12542;PMS3003;6337;49.556;25.594;2024-02-26T06:17:12;43.47;21.37;
12542;PMS3003;6337;49.556;25.594;2024-02-26T06:19:44;40.63;20.83;
12542;PMS3003;6337;49.556;25.594;2024-02-26T06:22:11;40.63;22.70;
12542;PMS3003;6337;49.556;25.594;2024-02-26T06:24:39;53.93;21.20;
12542;PMS3003;6337;49.556;25.594;2024-02-26T06:27:07;48.60;23.10;
12542;PMS3003;6337;49.556;25.594;2024-02-26T06:29:34;33.00;19.83;
12542;PMS3003;6337;49.556;25.594;2024-02-26T06:32:02;40.67;20.50;
12542;PMS3003;6337;49.556;25.594;2024-02-26T06:34:32;42.23;20.37;
12542;PMS3003;6337;49.556;25.594;2024-02-26T06:37:03;55.20;20.77;
12542;PMS3003;6337;49.556;25.594;2024-02-26T06:39:30;44.73;22.10;
12542;PMS3003;6337;49.556;25.594;2024-02-26T06:41:57;43.73;22.23;
12542;PMS3003;6337;49.556;25.594;2024-02-26T06:44:27;94.13;35.70;
12542;PMS3003;6337;49.556;25.594;2024-02-26T06:47:01;53.33;24.70;
12542;PMS3003;6337;49.556;25.594;2024-02-26T06:49:29;51.90;24.13;
12542;PMS3003;6337;49.556;25.594;2024-02-26T06:52:01;45.23;22.67;
12542;PMS3003;6337;49.556;25.594;2024-02-26T06:54:29;98.30;43.07;
12542;PMS3003;6337;49.556;25.594;2024-02-26T06:56:57;62.00;27.13;
12542;PMS3003;6337;49.556;25.594;2024-02-26T06:59:24;46.03;22.60;
12542;PMS3003;6337;49.556;25.594;2024-02-26T07:01:53;71.77;28.13;
12542;PMS3003;6337;49.556;25.594;2024-02-26T07:04:21;49.93;23.77;
12542;PMS3003;6337;49.556;25.594;2024-02-26T07:09:43;86.30;35.70;
12542;PMS3003;6337;49.556;25.594;2024-02-26T07:12:10;51.00;26.07;
12542;PMS3003;6337;49.556;25.594;2024-02-26T07:14:39;60.30;26.33;
12542;PMS3003;6337;49.556;25.594;2024-02-26T07:17:08;72.60;31.30;
12542;PMS3003;6337;49.556;25.594;2024-02-26T07:19:35;62.47;25.90;
12542;PMS3003;6337;49.556;25.594;2024-02-26T07:22:03;43.40;21.77;
12542;PMS3003;6337;49.556;25.594;2024-02-26T07:24:36;51.97;21.30;
12542;PMS3003;6337;49.556;25.594;2024-02-26T07:27:08;44.67;21.30;
12542;PMS3003;6337;49.556;25.594;2024-02-26T07:29:37;44.93;21.97;
12542;PMS3003;6337;49.556;25.594;2024-02-26T07:32:05;38.30;19.83;
12542;PMS3003;6337;49.556;25.594;2024-02-26T07:34:38;41.60;19.83;
12542;PMS3003;6337;49.556;25.594;2024-02-26T07:37:09;45.93;24.27;
12542;PMS3003;6337;49.556;25.594;2024-02-26T07:39:39;76.53;36.37;
12542;PMS3003;6337;49.556;25.594;2024-02-26T07:42:08;110.50;41.77;
12542;PMS3003;6337;49.556;25.594;2024-02-26T07:44:46;83.83;33.07;
12542;PMS3003;6337;49.556;25.594;2024-02-26T07:47:20;49.80;25.17;
12542;PMS3003;6337;49.556;25.594;2024-02-26T07:49:55;66.37;29.80;
12542;PMS3003;6337;49.556;25.594;2024-02-26T07:52:23;54.77;26.30;
12542;PMS3003;6337;49.556;25.594;2024-02-26T07:54:56;84.13;35.23;
12542;PMS3003;6337;49.556;25.594;2024-02-26T07:57:23;57.33;30.27;
12542;PMS3003;6337;49.556;25.594;2024-02-26T07:59:54;38.60;22.90;
12542;PMS3003;6337;49.556;25.594;2024-02-26T08:02:21;35.60;18.00;
12542;PMS3003;6337;49.556;25.594;2024-02-26T08:04:48;29.43;18.10;
12542;PMS3003;6337;49.556;25.594;2024-02-26T08:07:19;39.83;21.80;
12542;PMS3003;6337;49.556;25.594;2024-02-26T08:09:48;41.60;18.67;
12542;PMS3003;6337;49.556;25.594;2024-02-26T08:12:17;33.17;18.10;
12542;PMS3003;6337;49.556;25.594;2024-02-26T08:14:44;34.80;18.40;
12542;PMS3003;6337;49.556;25.594;2024-02-26T08:17:12;36.67;19.17;
12542;PMS3003;6337;49.556;25.594;2024-02-26T08:19:41;38.40;20.00;
12542;PMS3003;6337;49.556;25.594;2024-02-26T08:22:09;40.83;18.80;
12542;PMS3003;6337;49.556;25.594;2024-02-26T08:24:42;29.37;17.13;
12542;PMS3003;6337;49.556;25.594;2024-02-26T08:27:09;34.00;18.70;
12542;PMS3003;6337;49.556;25.594;2024-02-26T08:29:40;40.47;18.23;
12542;PMS3003;6337;49.556;25.594;2024-02-26T08:32:07;32.50;18.33;
12542;PMS3003;6337;49.556;25.594;2024-02-26T08:34:35;33.43;16.57;
12542;PMS3003;6337;49.556;25.594;2024-02-26T08:37:03;27.10;17.00;
12542;PMS3003;6337;49.556;25.594;2024-02-26T08:39:30;41.80;20.40;
12542;PMS3003;6337;49.556;25.594;2024-02-26T08:41:57;36.93;18.87;
12542;PMS3003;6337;49.556;25.594;2024-02-26T08:44:25;32.30;16.80;
12542;PMS3003;6337;49.556;25.594;2024-02-26T08:46:56;34.10;16.20;
12542;PMS3003;6337;49.556;25.594;2024-02-26T08:49:23;43.93;20.63;
12542;PMS3003;6337;49.556;25.594;2024-02-26T08:51:52;68.23;31.07;
12542;PMS3003;6337;49.556;25.594;2024-02-26T08:54:19;37.30;21.10;
12542;PMS3003;6337;49.556;25.594;2024-02-26T08:56:46;33.03;16.00;
12542;PMS3003;6337;49.556;25.594;2024-02-26T08:59:14;30.73;17.93;
12542;PMS3003;6337;49.556;25.594;2024-02-26T09:01:47;29.70;16.10;
12542;PMS3003;6337;49.556;25.594;2024-02-26T09:04:18;28.50;15.40;
12542;PMS3003;6337;49.556;25.594;2024-02-26T09:06:45;31.73;15.93;
12542;PMS3003;6337;49.556;25.594;2024-02-26T09:09:12;29.50;16.20;
12542;PMS3003;6337;49.556;25.594;2024-02-26T09:11:40;35.57;18.00;
12542;PMS3003;6337;49.556;25.594;2024-02-26T09:14:09;30.17;16.37;
12542;PMS3003;6337;49.556;25.594;2024-02-26T09:16:36;24.67;14.63;
12542;PMS3003;6337;49.556;25.594;2024-02-26T09:19:04;36.00;18.43;
12542;PMS3003;6337;49.556;25.594;2024-02-26T09:21:32;42.07;17.00;
12542;PMS3003;6337;49.556;25.594;2024-02-26T09:23:59;34.37;16.50;
12542;PMS3003;6337;49.556;25.594;2024-02-26T09:26:27;34.90;18.10;
12542;PMS3003;6337;49.556;25.594;2024-02-26T09:28:55;30.37;17.37;
12542;PMS3003;6337;49.556;25.594;2024-02-26T09:31:29;36.80;17.07;
12542;PMS3003;6337;49.556;25.594;2024-02-26T09:33:59;30.83;16.40;
12542;PMS3003;6337;49.556;25.594;2024-02-26T09:36:27;26.70;13.27;
12542;PMS3003;6337;49.556;25.594;2024-02-26T09:38:59;25.03;15.17;
12542;PMS3003;6337;49.556;25.594;2024-02-26T09:41:30;27.73;15.20;
12542;PMS3003;6337;49.556;25.594;2024-02-26T09:43:57;21.13;14.30;
12542;PMS3003;6337;49.556;25.594;2024-02-26T09:46:34;27.47;14.73;
12542;PMS3003;6337;49.556;25.594;2024-02-26T09:49:01;29.27;15.47;
12542;PMS3003;6337;49.556;25.594;2024-02-26T09:51:33;31.57;15.93;
12542;PMS3003;6337;49.556;25.594;2024-02-26T09:54:04;20.90;13.97;
12542;PMS3003;6337;49.556;25.594;2024-02-26T09:56:35;22.70;14.30;
12542;PMS3003;6337;49.556;25.594;2024-02-26T09:59:09;26.93;13.73;
12542;PMS3003;6337;49.556;25.594;2024-02-26T10:01:41;26.57;15.77;
12542;PMS3003;6337;49.556;25.594;2024-02-26T10:04:11;24.53;13.30;
12542;PMS3003;6337;49.556;25.594;2024-02-26T10:06:41;24.53;14.70;
12542;PMS3003;6337;49.556;25.594;2024-02-26T10:09:13;29.20;14.00;
12542;PMS3003;6337;49.556;25.594;2024-02-26T10:11:41;24.07;12.20;
12542;PMS3003;6337;49.556;25.594;2024-02-26T10:14:11;22.43;13.33;
12542;PMS3003;6337;49.556;25.594;2024-02-26T10:16:38;29.17;14.60;
12542;PMS3003;6337;49.556;25.594;2024-02-26T10:19:07;25.40;14.53;
12542;PMS3003;6337;49.556;25.594;2024-02-26T10:21:35;22.77;13.03;
12542;PMS3003;6337;49.556;25.594;2024-02-26T10:24:03;32.33;18.07;
12542;PMS3003;6337;49.556;25.594;2024-02-26T10:26:34;27.97;15.30;
12542;PMS3003;6337;49.556;25.594;2024-02-26T10:29:01;27.37;14.60;
12542;PMS3003;6337;49.556;25.594;2024-02-26T10:31:29;25.73;14.63;
12542;PMS3003;6337;49.556;25.594;2024-02-26T10:33:57;26.97;12.60;
12542;PMS3003;6337;49.556;25.594;2024-02-26T10:36:33;28.47;14.30;
12542;PMS3003;6337;49.556;25.594;2024-02-26T10:39:01;26.37;14.67;
12542;PMS3003;6337;49.556;25.594;2024-02-26T10:41:30;26.00;12.47;
12542;PMS3003;6337;49.556;25.594;2024-02-26T10:44:03;22.57;12.93;
12542;PMS3003;6337;49.556;25.594;2024-02-26T10:46:41;27.43;15.00;
12542;PMS3003;6337;49.556;25.594;2024-02-26T10:49:13;30.50;16.60;
12542;PMS3003;6337;49.556;25.594;2024-02-26T10:51:51;25.97;12.67;
12542;PMS3003;6337;49.556;25.594;2024-02-26T10:54:26;30.07;14.73;
12542;PMS3003;6337;49.556;25.594;2024-02-26T10:56:56;30.43;15.50;
12542;PMS3003;6337;49.556;25.594;2024-02-26T10:59:37;30.13;15.47;
12542;PMS3003;6337;49.556;25.594;2024-02-26T11:02:06;26.03;14.40;
12542;PMS3003;6337;49.556;25.594;2024-02-26T11:04:36;29.27;14.70;
12542;PMS3003;6337;49.556;25.594;2024-02-26T11:07:04;25.63;14.83;
12542;PMS3003;6337;49.556;25.594;2024-02-26T11:09:33;34.97;17.83;
12542;PMS3003;6337;49.556;25.594;2024-02-26T11:12:07;23.40;14.10;
12542;PMS3003;6337;49.556;25.594;2024-02-26T11:14:39;27.97;14.50;
12542;PMS3003;6337;49.556;25.594;2024-02-26T11:17:07;26.47;14.33;
12542;PMS3003;6337;49.556;25.594;2024-02-26T11:19:36;23.00;13.53;
12542;PMS3003;6337;49.556;25.594;2024-02-26T11:22:07;23.40;14.93;
12542;PMS3003;6337;49.556;25.594;2024-02-26T11:24:35;18.17;12.47;
12542;PMS3003;6337;49.556;25.594;2024-02-26T11:27:06;24.47;13.70;
12542;PMS3003;6337;49.556;25.594;2024-02-26T11:29:37;24.83;15.37;
12542;PMS3003;6337;49.556;25.594;2024-02-26T11:32:09;26.63;13.47;
12542;PMS3003;6337;49.556;25.594;2024-02-26T11:34:38;26.00;13.37;
12542;PMS3003;6337;49.556;25.594;2024-02-26T11:37:15;29.73;12.53;
12542;PMS3003;6337;49.556;25.594;2024-02-26T11:39:48;21.03;12.73;
12542;PMS3003;6337;49.556;25.594;2024-02-26T11:42:22;27.67;15.00;
12542;PMS3003;6337;49.556;25.594;2024-02-26T11:44:52;21.80;13.13;
12542;PMS3003;6337;49.556;25.594;2024-02-26T11:47:26;25.10;12.83;
12542;PMS3003;6337;49.556;25.594;2024-02-26T11:49:55;23.10;12.83;
12542;PMS3003;6337;49.556;25.594;2024-02-26T11:52:22;21.33;13.00;
12542;PMS3003;6337;49.556;25.594;2024-02-26T11:54:50;23.93;13.60;
12542;PMS3003;6337;49.556;25.594;2024-02-26T11:57:24;20.77;12.00;
12542;PMS3003;6337;49.556;25.594;2024-02-26T11:59:56;23.97;15.33;
12542;PMS3003;6337;49.556;25.594;2024-02-26T12:05:23;28.37;11.80;
12542;PMS3003;6337;49.556;25.594;2024-02-26T12:07:53;18.07;10.90;
12542;PMS3003;6337;49.556;25.594;2024-02-26T12:10:23;20.63;10.80;
12542;PMS3003;6337;49.556;25.594;2024-02-26T12:12:55;26.70;11.17;
12542;PMS3003;6337;49.556;25.594;2024-02-26T12:15:36;15.40;11.20;
12542;PMS3003;6337;49.556;25.594;2024-02-26T12:18:12;24.73;14.00;
12542;PMS3003;6337;49.556;25.594;2024-02-26T12:20:58;15.90;10.80;
12542;PMS3003;6337;49.556;25.594;2024-02-26T12:23:26;23.77;13.50;
12542;PMS3003;6337;49.556;25.594;2024-02-26T12:25:53;23.07;12.47;
12542;PMS3003;6337;49.556;25.594;2024-02-26T12:28:27;23.50;13.67;
12542;PMS3003;6337;49.556;25.594;2024-02-26T12:31:03;17.77;12.73;
12542;PMS3003;6337;49.556;25.594;2024-02-26T12:33:31;30.67;14.50;
12542;PMS3003;6337;49.556;25.594;2024-02-26T12:35:59;23.80;13.93;
12542;PMS3003;6337;49.556;25.594;2024-02-26T12:38:27;27.90;13.93;
12542;PMS3003;6337;49.556;25.594;2024-02-26T12:40:55;32.43;13.47;
12542;PMS3003;6337;49.556;25.594;2024-02-26T12:43:24;21.87;13.30;
12542;PMS3003;6337;49.556;25.594;2024-02-26T12:45:53;23.53;13.70;
12542;PMS3003;6337;49.556;25.594;2024-02-26T12:48:24;24.83;13.07;
12542;PMS3003;6337;49.556;25.594;2024-02-26T12:51:03;32.07;16.50;
12542;PMS3003;6337;49.556;25.594;2024-02-26T12:53:31;26.53;15.43;
12542;PMS3003;6337;49.556;25.594;2024-02-26T12:55:59;25.67;15.47;
12542;PMS3003;6337;49.556;25.594;2024-02-26T12:58:28;24.53;14.40;
12542;PMS3003;6337;49.556;25.594;2024-02-26T13:01:01;24.40;14.63;
12542;PMS3003;6337;49.556;25.594;2024-02-26T13:03:32;37.50;16.87;
12542;PMS3003;6337;49.556;25.594;2024-02-26T13:06:01;28.43;15.57;
12542;PMS3003;6337;49.556;25.594;2024-02-26T13:08:31;29.40;17.40;
12542;PMS3003;6337;49.556;25.594;2024-02-26T13:11:00;34.87;16.10;
12542;PMS3003;6337;49.556;25.594;2024-02-26T13:13:27;35.53;13.77;
12542;PMS3003;6337;49.556;25.594;2024-02-26T13:16:01;28.07;15.40;
12542;PMS3003;6337;49.556;25.594;2024-02-26T13:18:29;34.13;16.07;
12542;PMS3003;6337;49.556;25.594;2024-02-26T13:21:08;26.47;15.63;
12542;PMS3003;6337;49.556;25.594;2024-02-26T13:23:37;25.07;15.47;
12542;PMS3003;6337;49.556;25.594;2024-02-26T13:26:05;30.97;15.33;
12542;PMS3003;6337;49.556;25.594;2024-02-26T13:28:34;28.27;15.93;
12542;PMS3003;6337;49.556;25.594;2024-02-26T13:31:02;28.00;15.03;
12542;PMS3003;6337;49.556;25.594;2024-02-26T13:33:40;30.20;14.33;
12542;PMS3003;6337;49.556;25.594;2024-02-26T13:36:07;24.83;13.97;
12542;PMS3003;6337;49.556;25.594;2024-02-26T13:38:37;29.30;14.67;
12542;PMS3003;6337;49.556;25.594;2024-02-26T13:41:04;26.73;12.80;
12542;PMS3003;6337;49.556;25.594;2024-02-26T13:43:31;35.27;14.80;
12542;PMS3003;6337;49.556;25.594;2024-02-26T13:45:59;38.23;16.47;
12542;PMS3003;6337;49.556;25.594;2024-02-26T13:48:26;34.77;17.00;
12542;PMS3003;6337;49.556;25.594;2024-02-26T13:50:55;33.40;14.37;
12542;PMS3003;6337;49.556;25.594;2024-02-26T13:53:22;32.83;20.20;
12542;PMS3003;6337;49.556;25.594;2024-02-26T13:55:49;31.87;14.70;
12542;PMS3003;6337;49.556;25.594;2024-02-26T13:58:16;33.20;15.63;
12542;PMS3003;6337;49.556;25.594;2024-02-26T14:00:48;23.67;13.27;
12542;PMS3003;6337;49.556;25.594;2024-02-26T14:03:16;33.90;14.10;
12542;PMS3003;6337;49.556;25.594;2024-02-26T14:05:44;28.47;13.70;
12542;PMS3003;6337;49.556;25.594;2024-02-26T14:08:20;26.53;15.40;
12542;PMS3003;6337;49.556;25.594;2024-02-26T14:10:48;29.33;16.73;
12542;PMS3003;6337;49.556;25.594;2024-02-26T14:13:17;30.40;13.40;
12542;PMS3003;6337;49.556;25.594;2024-02-26T14:15:56;29.73;15.30;
12542;PMS3003;6337;49.556;25.594;2024-02-26T14:18:25;31.90;16.70;
12542;PMS3003;6337;49.556;25.594;2024-02-26T14:20:53;27.97;15.47;
12542;PMS3003;6337;49.556;25.594;2024-02-26T14:23:23;39.40;17.27;
12542;PMS3003;6337;49.556;25.594;2024-02-26T14:25:50;30.53;17.50;
12542;PMS3003;6337;49.556;25.594;2024-02-26T14:28:17;32.87;16.10;
12542;PMS3003;6337;49.556;25.594;2024-02-26T14:30:45;29.90;16.80;
12542;PMS3003;6337;49.556;25.594;2024-02-26T14:33:12;28.93;16.40;
12542;PMS3003;6337;49.556;25.594;2024-02-26T14:35:43;35.17;18.50;
12542;PMS3003;6337;49.556;25.594;2024-02-26T14:38:11;31.43;17.40;
12542;PMS3003;6337;49.556;25.594;2024-02-26T14:40:40;38.80;20.17;
12542;PMS3003;6337;49.556;25.594;2024-02-26T14:43:07;41.10;20.53;
12542;PMS3003;6337;49.556;25.594;2024-02-26T14:45:35;33.73;16.60;
12542;PMS3003;6337;49.556;25.594;2024-02-26T14:48:03;36.57;19.50;
12542;PMS3003;6337;49.556;25.594;2024-02-26T14:50:39;35.00;19.30;
12542;PMS3003;6337;49.556;25.594;2024-02-26T14:53:07;45.20;20.77;
12542;PMS3003;6337;49.556;25.594;2024-02-26T14:55:35;49.53;21.07;
12542;PMS3003;6337;49.556;25.594;2024-02-26T14:58:17;50.90;20.00;
12542;PMS3003;6337;49.556;25.594;2024-02-26T15:00:45;39.13;20.80;
12542;PMS3003;6337;49.556;25.594;2024-02-26T15:03:14;44.27;24.17;
12542;PMS3003;6337;49.556;25.594;2024-02-26T15:05:43;42.23;19.27;